Time;durP1;ratioP1;P1;durP2;ratioP2;P2;SDS_P1;SDS_P2;PMS_P1;PMS_P2;Temp;Humidity;BMP_temperature;BMP_pressure;BME280_temperature;BME280_humidity;BME280_pressure;Samples;Min_cycle;Max_cycle;Signal;HPM_P1;HPM_P2
2023/03/01 00:01:40;;;;;;;0.00;0.00;;;;;;;;;;4930700;29;20043;-94
2023/03/01 00:04:27;;;;;;;;;;;;;;;;;;;;;
2023/03/01 00:06:56;;;;;;;0.00;0.00;;;;;;;;;;4950896;29;20039;-95
2023/03/01 00:09:24;;;;;;;0.00;0.00;;;;;;;;;;4945662;29;20498;-96
2023/03/01 00:11:53;;;;;;;0.10;0.10;;;;;;;;;;4934104;29;20075;-93
2023/03/01 00:14:24;;;;;;;0.00;0.00;;;;;;;;;;4948788;28;20098;-93
2023/03/01 00:16:50;;;;;;;0.00;0.00;;;;;;;;;;4948030;29;20070;-94
2023/03/01 00:19:24;;;;;;;0.00;0.00;;;;;;;;;;4949579;29;20215;-95
2023/03/01 00:21:50;;;;;;;0.00;0.00;;;;;;;;;;4951077;29;20107;-94
2023/03/01 00:24:19;;;;;;;0.00;0.00;;;;;;;;;;4964800;28;20061;-95
2023/03/01 00:26:46;;;;;;;0.00;0.00;;;;;;;;;;4929781;29;20043;-95
2023/03/01 00:29:12;;;;;;;0.00;0.00;;;;;;;;;;4942900;29;20039;-94
2023/03/01 00:31:38;;;;;;;0.00;0.00;;;;;;;;;;4928168;29;20042;-95
2023/03/01 00:34:05;;;;;;;0.00;0.00;;;;;;;;;;4946379;29;20079;-95
2023/03/01 00:36:35;;;;;;;0.00;0.00;;;;;;;;;;4945366;29;20050;-94
2023/03/01 00:39:01;;;;;;;0.28;0.10;;;;;;;;;;4945692;28;20122;-96
2023/03/01 00:41:27;;;;;;;0.00;0.00;;;;;;;;;;4928372;29;20191;-95
2023/03/01 00:43:53;;;;;;;0.00;0.00;;;;;;;;;;4943270;29;20043;-93
2023/03/01 00:46:21;;;;;;;0.00;0.00;;;;;;;;;;4943057;29;20120;-94
2023/03/01 00:48:47;;;;;;;0.00;0.00;;;;;;;;;;4942833;28;20049;-94
2023/03/01 00:51:14;;;;;;;0.00;0.00;;;;;;;;;;4942706;29;20098;-94
2023/03/01 00:53:41;;;;;;;0.00;0.00;;;;;;;;;;4942316;29;20139;-93
2023/03/01 00:56:10;;;;;;;0.00;0.00;;;;;;;;;;4942524;29;20487;-95
2023/03/01 00:58:36;;;;;;;0.00;0.00;;;;;;;;;;4925744;29;20055;-96
2023/03/01 01:01:31;;;;;;;0.00;0.00;;;;;;;;;;4942250;29;20045;-94
2023/03/01 01:04:17;;;;;;;0.00;0.00;;;;;;;;;;4944997;29;20055;-94
2023/03/01 01:06:51;;;;;;;1.38;0.30;;;;;;;;;;4931950;29;20094;-95
2023/03/01 01:09:20;;;;;;;0.00;0.00;;;;;;;;;;4948521;29;20035;-93
2023/03/01 01:11:47;;;;;;;0.00;0.00;;;;;;;;;;4947296;29;20075;-93
2023/03/01 01:14:16;;;;;;;0.00;0.00;;;;;;;;;;4943772;28;20553;-94
2023/03/01 01:16:42;;;;;;;0.00;0.00;;;;;;;;;;4941544;29;20099;-96
2023/03/01 01:19:09;;;;;;;0.00;0.00;;;;;;;;;;4940719;29;20062;-93
2023/03/01 01:21:36;;;;;;;0.00;0.00;;;;;;;;;;4940397;29;20541;-95
2023/03/01 01:24:05;;;;;;;0.00;0.00;;;;;;;;;;4925507;28;20047;-96
2023/03/01 01:26:32;;;;;;;0.00;0.00;;;;;;;;;;4940467;29;20039;-96
2023/03/01 01:28:59;;;;;;;0.40;0.00;;;;;;;;;;4925944;29;20106;-93
2023/03/01 01:31:25;;;;;;;0.00;0.00;;;;;;;;;;4943148;29;20064;-96
2023/03/01 01:33:52;;;;;;;0.00;0.00;;;;;;;;;;4944355;29;20047;-95
2023/03/01 01:36:28;;;;;;;0.00;0.00;;;;;;;;;;4947039;29;20050;-94
2023/03/01 01:38:54;;;;;;;0.00;0.00;;;;;;;;;;4945821;29;20484;-95
2023/03/01 01:41:23;;;;;;;0.00;0.00;;;;;;;;;;4928045;29;20452;-95
2023/03/01 01:44:17;;;;;;;0.00;0.00;;;;;;;;;;4943584;29;20127;-96
2023/03/01 01:46:46;;;;;;;0.00;0.00;;;;;;;;;;4943429;29;20050;-94
2023/03/01 01:49:31;;;;;;;0.00;0.00;;;;;;;;;;4944244;29;20047;-94
2023/03/01 01:52:04;;;;;;;0.00;0.00;;;;;;;;;;4943909;29;20082;-94
2023/03/01 01:54:47;;;;;;;0.00;0.00;;;;;;;;;;4927218;28;20043;-95
2023/03/01 01:57:19;;;;;;;0.00;0.00;;;;;;;;;;4943116;29;20098;-96
2023/03/01 01:59:48;;;;;;;0.28;0.15;;;;;;;;;;4941787;29;20058;-96
2023/03/01 02:02:15;;;;;;;0.00;0.00;;;;;;;;;;4928971;29;20074;-93
2023/03/01 02:04:41;;;;;;;0.10;0.10;;;;;;;;;;4940167;29;20046;-94
2023/03/01 02:07:21;;;;;;;0.00;0.00;;;;;;;;;;4928943;29;20039;-96
2023/03/01 02:09:52;;;;;;;0.00;0.00;;;;;;;;;;4946117;29;20066;-94
2023/03/01 02:12:24;;;;;;;0.00;0.00;;;;;;;;;;4943654;29;20086;-95
2023/03/01 02:14:50;;;;;;;0.00;0.00;;;;;;;;;;4942831;29;20043;-94
2023/03/01 02:17:24;;;;;;;0.00;0.00;;;;;;;;;;4927277;29;20487;-94
2023/03/01 02:20:06;;;;;;;0.00;0.00;;;;;;;;;;4943799;29;20035;-94
2023/03/01 02:22:33;;;;;;;0.00;0.00;;;;;;;;;;4926330;29;20077;-95
2023/03/01 02:25:18;;;;;;;0.00;0.00;;;;;;;;;;4942223;29;20042;-91
2023/03/01 02:28:15;;;;;;;;;;;;;;;;;;;;;
2023/03/01 02:33:32;;;;;;;0.00;0.00;;;;;;;;;;4925454;29;20056;-95
2023/03/01 02:36:02;;;;;;;0.00;0.00;;;;;;;;;;4944504;29;20070;-95
2023/03/01 02:38:31;;;;;;;0.00;0.00;;;;;;;;;;4946041;29;20062;-94
2023/03/01 02:41:00;;;;;;;0.00;0.00;;;;;;;;;;4960977;28;20097;-95
2023/03/01 02:43:29;;;;;;;0.00;0.00;;;;;;;;;;4943022;29;20054;-96
2023/03/01 02:45:58;;;;;;;0.00;0.00;;;;;;;;;;4942078;29;20119;-95
2023/03/01 02:48:27;;;;;;;0.00;0.00;;;;;;;;;;4942896;29;20483;-96
2023/03/01 02:51:22;;;;;;;0.00;0.00;;;;;;;;;;4942104;29;20095;-95
2023/03/01 02:54:01;;;;;;;0.00;0.00;;;;;;;;;;4929768;29;20145;-96
2023/03/01 02:56:33;;;;;;;0.00;0.00;;;;;;;;;;4943862;29;20095;-95
2023/03/01 02:59:16;;;;;;;0.00;0.00;;;;;;;;;;4945003;29;20058;-95
2023/03/01 03:01:42;;;;;;;0.00;0.00;;;;;;;;;;4945609;29;20078;-95
2023/03/01 03:04:16;;;;;;;0.00;0.00;;;;;;;;;;4941815;28;20123;-95
2023/03/01 03:06:43;;;;;;;0.00;0.00;;;;;;;;;;4941355;29;20067;-94
2023/03/01 03:09:10;;;;;;;0.00;0.00;;;;;;;;;;4923825;29;20131;-94
2023/03/01 03:11:40;;;;;;;0.00;0.00;;;;;;;;;;4939307;29;20407;-95
2023/03/01 03:14:12;;;;;;;0.00;0.00;;;;;;;;;;4939888;29;20047;-95
2023/03/01 03:16:49;;;;;;;0.00;0.00;;;;;;;;;;4925459;29;20134;-95
2023/03/01 03:22:10;;;;;;;0.00;0.00;;;;;;;;;;4959837;29;20074;-96
2023/03/01 03:24:41;;;;;;;0.00;0.00;;;;;;;;;;4948212;29;20043;-93
2023/03/01 03:27:10;;;;;;;0.00;0.00;;;;;;;;;;4930423;29;20443;-95
2023/03/01 03:29:39;;;;;;;0.00;0.00;;;;;;;;;;4942112;29;20082;-94
2023/03/01 03:32:05;;;;;;;0.00;0.00;;;;;;;;;;4941508;29;20527;-94
2023/03/01 03:34:38;;;;;;;0.00;0.00;;;;;;;;;;4942523;28;20126;-95
2023/03/01 03:38:01;;;;;;;0.00;0.00;;;;;;;;;;4928589;29;20079;-96
2023/03/01 03:39:54;;;;;;;0.22;0.15;;;;;;;;;;4944499;29;20142;-96
2023/03/01 03:42:24;;;;;;;0.00;0.00;;;;;;;;;;4944551;29;20047;-96
2023/03/01 03:44:53;;;;;;;0.00;0.00;;;;;;;;;;4928934;29;20060;-95
2023/03/01 03:47:19;;;;;;;0.00;0.00;;;;;;;;;;4927566;29;20035;-94
2023/03/01 03:49:47;;;;;;;0.00;0.00;;;;;;;;;;4928031;29;20098;-95
2023/03/01 03:52:13;;;;;;;0.00;0.00;;;;;;;;;;4942905;29;20062;-93
2023/03/01 03:54:42;;;;;;;0.00;0.00;;;;;;;;;;4942110;29;20574;-96
2023/03/01 03:57:08;;;;;;;0.45;0.40;;;;;;;;;;4941831;29;20091;-94
2023/03/01 03:59:34;;;;;;;0.00;0.00;;;;;;;;;;4942575;29;20091;-95
2023/03/01 04:02:00;;;;;;;1.95;0.35;;;;;;;;;;4942709;29;20078;-94
2023/03/01 04:04:26;;;;;;;0.00;0.00;;;;;;;;;;4926558;28;20044;-92
2023/03/01 04:06:52;;;;;;;0.00;0.00;;;;;;;;;;4941349;29;20039;-96
2023/03/01 04:09:18;;;;;;;0.00;0.00;;;;;;;;;;4942607;29;20047;-95
2023/03/01 04:11:44;;;;;;;0.00;0.00;;;;;;;;;;4942219;29;20043;-94
2023/03/01 04:14:10;;;;;;;0.00;0.00;;;;;;;;;;4942457;28;20047;-95
2023/03/01 04:16:36;;;;;;;0.00;0.00;;;;;;;;;;4926548;29;20071;-95
2023/03/01 04:19:02;;;;;;;0.00;0.00;;;;;;;;;;4942442;29;20093;-95
2023/03/01 04:21:28;;;;;;;0.00;0.00;;;;;;;;;;4941951;29;20131;-95
2023/03/01 04:23:54;;;;;;;1.95;0.10;;;;;;;;;;4943076;29;20047;-95
2023/03/01 04:26:20;;;;;;;0.00;0.00;;;;;;;;;;4941780;29;20035;-94
2023/03/01 04:28:49;;;;;;;0.00;0.00;;;;;;;;;;4943404;29;20078;-94
2023/03/01 04:31:20;;;;;;;0.00;0.00;;;;;;;;;;4926793;29;20070;-95
2023/03/01 04:33:56;;;;;;;0.00;0.00;;;;;;;;;;4926502;29;20050;-94
2023/03/01 04:36:24;;;;;;;0.00;0.00;;;;;;;;;;4943084;29;20047;-95
2023/03/01 04:38:51;;;;;;;0.00;0.00;;;;;;;;;;4926292;29;20551;-96
2023/03/01 04:41:22;;;;;;;0.00;0.00;;;;;;;;;;4940977;29;20052;-96
2023/03/01 04:43:50;;;;;;;0.00;0.00;;;;;;;;;;4925100;29;20055;-94
2023/03/01 04:46:18;;;;;;;0.00;0.00;;;;;;;;;;4924786;29;20048;-92
2023/03/01 04:48:54;;;;;;;0.00;0.00;;;;;;;;;;4941034;29;20039;-95
2023/03/01 04:51:21;;;;;;;0.00;0.00;;;;;;;;;;4925560;29;20047;-94
2023/03/01 04:53:47;;;;;;;0.00;0.00;;;;;;;;;;4943166;29;20078;-95
2023/03/01 04:56:13;;;;;;;0.00;0.00;;;;;;;;;;4943839;29;20394;-94
2023/03/01 04:58:40;;;;;;;0.00;0.00;;;;;;;;;;4942764;29;20078;-95
2023/03/01 05:01:15;;;;;;;0.00;0.00;;;;;;;;;;4927508;29;20134;-94
2023/03/01 05:03:45;;;;;;;0.00;0.00;;;;;;;;;;4927502;29;20059;-95
2023/03/01 05:06:11;;;;;;;0.00;0.00;;;;;;;;;;4945595;29;20043;-94
2023/03/01 05:08:38;;;;;;;0.00;0.00;;;;;;;;;;4945582;29;20039;-94
2023/03/01 05:11:05;;;;;;;0.00;0.00;;;;;;;;;;4942879;29;20099;-94
2023/03/01 05:13:31;;;;;;;0.00;0.00;;;;;;;;;;4927294;29;20386;-94
2023/03/01 05:15:59;;;;;;;0.00;0.00;;;;;;;;;;4943782;29;20573;-96
2023/03/01 05:18:25;;;;;;;0.00;0.00;;;;;;;;;;4944059;29;20050;-95
2023/03/01 05:20:52;;;;;;;0.00;0.00;;;;;;;;;;4945943;29;20120;-94
2023/03/01 05:23:21;;;;;;;0.00;0.00;;;;;;;;;;4946637;29;20047;-94
2023/03/01 05:25:47;;;;;;;0.00;0.00;;;;;;;;;;4945624;29;20105;-94
2023/03/01 05:28:17;;;;;;;0.00;0.00;;;;;;;;;;4928842;29;20215;-91
2023/03/01 05:30:43;;;;;;;0.00;0.00;;;;;;;;;;4943817;29;20492;-94
2023/03/01 05:33:13;;;;;;;0.00;0.00;;;;;;;;;;4926615;29;20086;-95
2023/03/01 05:35:50;;;;;;;0.20;0.10;;;;;;;;;;4943842;29;20047;-94
2023/03/01 05:38:16;;;;;;;0.00;0.00;;;;;;;;;;4943326;29;20050;-93
2023/03/01 05:40:43;;;;;;;0.22;0.08;;;;;;;;;;4926954;29;20090;-94
2023/03/01 05:43:12;;;;;;;5.13;1.88;;;;;;;;;;4928290;29;20219;-96
2023/03/01 05:45:38;;;;;;;0.00;0.00;;;;;;;;;;4943805;29;20415;-95
2023/03/01 05:48:13;;;;;;;0.00;0.00;;;;;;;;;;4944086;29;20090;-94
2023/03/01 05:50:43;;;;;;;0.00;0.00;;;;;;;;;;4931538;29;20043;-93
2023/03/01 05:53:18;;;;;;;0.00;0.00;;;;;;;;;;4934292;29;20043;-94
2023/03/01 05:55:52;;;;;;;0.00;0.00;;;;;;;;;;4928715;29;20110;-94
2023/03/01 05:58:26;;;;;;;0.00;0.00;;;;;;;;;;4944734;29;20074;-94
2023/03/01 06:00:55;;;;;;;0.00;0.00;;;;;;;;;;4948624;29;20047;-93
2023/03/01 06:03:21;;;;;;;0.00;0.00;;;;;;;;;;4929928;28;20110;-91
2023/03/01 06:05:55;;;;;;;0.00;0.00;;;;;;;;;;4928557;29;20046;-93
2023/03/01 06:08:24;;;;;;;0.00;0.00;;;;;;;;;;4942877;29;20043;-94
2023/03/01 06:10:53;;;;;;;0.55;0.40;;;;;;;;;;4927604;29;20130;-93
2023/03/01 06:13:25;;;;;;;0.00;0.00;;;;;;;;;;4962387;29;20094;-93
2023/03/01 06:15:51;;;;;;;0.00;0.00;;;;;;;;;;4926526;28;20042;-94
2023/03/01 06:18:23;;;;;;;0.00;0.00;;;;;;;;;;4945717;29;20043;-94
2023/03/01 06:20:55;;;;;;;0.20;0.10;;;;;;;;;;4929348;29;20047;-94
2023/03/01 06:23:24;;;;;;;0.30;0.30;;;;;;;;;;4946041;29;20102;-93
2023/03/01 06:25:51;;;;;;;0.00;0.00;;;;;;;;;;4930910;29;20039;-94
2023/03/01 06:28:20;;;;;;;0.00;0.00;;;;;;;;;;4928680;28;20035;-91
2023/03/01 06:30:46;;;;;;;0.13;0.13;;;;;;;;;;4929198;29;20075;-94
2023/03/01 06:33:12;;;;;;;6.55;0.77;;;;;;;;;;4941474;29;20478;-94
2023/03/01 06:35:39;;;;;;;0.60;0.47;;;;;;;;;;4925979;29;20447;-94
2023/03/01 06:38:07;;;;;;;0.00;0.00;;;;;;;;;;4945908;29;20047;-95
2023/03/01 06:40:35;;;;;;;0.00;0.00;;;;;;;;;;4930331;28;20184;-93
2023/03/01 06:43:01;;;;;;;0.00;0.00;;;;;;;;;;4929307;29;20102;-93
2023/03/01 06:45:32;;;;;;;0.00;0.00;;;;;;;;;;4942977;29;20487;-93
2023/03/01 06:48:04;;;;;;;0.00;0.00;;;;;;;;;;4941564;29;20042;-94
2023/03/01 06:50:36;;;;;;;0.10;0.10;;;;;;;;;;4942745;29;20126;-94
2023/03/01 06:53:05;;;;;;;0.10;0.10;;;;;;;;;;4943279;28;20487;-94
2023/03/01 06:55:38;;;;;;;0.00;0.00;;;;;;;;;;4928448;28;20043;-95
2023/03/01 06:58:04;;;;;;;0.00;0.00;;;;;;;;;;4927370;29;20091;-95
2023/03/01 07:00:40;;;;;;;0.00;0.00;;;;;;;;;;4925373;29;20043;-95
2023/03/01 07:03:06;;;;;;;0.00;0.00;;;;;;;;;;4929918;29;20043;-94
2023/03/01 07:06:11;;;;;;;0.00;0.00;;;;;;;;;;4933140;29;20070;-96
2023/03/01 07:08:37;;;;;;;0.00;0.00;;;;;;;;;;4962436;28;20051;-93
2023/03/01 07:11:05;;;;;;;0.00;0.00;;;;;;;;;;4950745;29;20051;-94
2023/03/01 07:13:42;;;;;;;0.15;0.08;;;;;;;;;;4936348;29;20517;-96
2023/03/01 07:16:14;;;;;;;0.00;0.00;;;;;;;;;;4948517;29;20054;-94
2023/03/01 07:18:43;;;;;;;0.00;0.00;;;;;;;;;;4951185;29;20054;-94
2023/03/01 07:21:11;;;;;;;0.00;0.00;;;;;;;;;;4954668;29;20058;-93
2023/03/01 07:24:26;;;;;;;0.00;0.00;;;;;;;;;;4955321;29;20042;-95
2023/03/01 07:26:53;;;;;;;0.00;0.00;;;;;;;;;;4953911;29;20047;-94
2023/03/01 07:29:19;;;;;;;0.00;0.00;;;;;;;;;;4944224;29;20046;-94
2023/03/01 07:31:45;;;;;;;0.00;0.00;;;;;;;;;;4942288;29;20083;-93
2023/03/01 07:34:11;;;;;;;0.00;0.00;;;;;;;;;;4925586;28;20078;-94
2023/03/01 07:36:39;;;;;;;0.00;0.00;;;;;;;;;;4925824;29;20066;-95
2023/03/01 07:39:05;;;;;;;0.00;0.00;;;;;;;;;;4925443;28;20047;-91
2023/03/01 07:41:31;;;;;;;0.00;0.00;;;;;;;;;;4926622;29;20086;-92
2023/03/01 07:44:09;;;;;;;0.00;0.00;;;;;;;;;;4947246;29;20090;-93
2023/03/01 07:46:35;;;;;;;0.00;0.00;;;;;;;;;;4927454;29;20095;-93
2023/03/01 07:49:01;;;;;;;0.00;0.00;;;;;;;;;;4926760;29;20039;-92
2023/03/01 07:51:27;;;;;;;0.30;0.20;;;;;;;;;;4926714;28;20197;-92
2023/03/01 07:53:53;;;;;;;0.00;0.00;;;;;;;;;;4948711;29;20074;-94
2023/03/01 07:56:21;;;;;;;0.00;0.00;;;;;;;;;;4927540;29;20079;-95
2023/03/01 07:58:47;;;;;;;0.00;0.00;;;;;;;;;;4925580;29;20065;-94
2023/03/01 08:01:14;;;;;;;0.00;0.00;;;;;;;;;;4941226;29;20495;-93
2023/03/01 08:03:42;;;;;;;0.00;0.00;;;;;;;;;;4925342;29;20459;-95
2023/03/01 08:06:09;;;;;;;0.28;0.28;;;;;;;;;;4925156;28;20138;-91
2023/03/01 08:08:35;;;;;;;0.00;0.00;;;;;;;;;;4925283;29;20133;-94
2023/03/01 08:11:02;;;;;;;0.00;0.00;;;;;;;;;;4941076;29;20156;-93
2023/03/01 08:13:28;;;;;;;0.00;0.00;;;;;;;;;;4941064;29;20070;-91
2023/03/01 08:15:54;;;;;;;0.32;0.32;;;;;;;;;;4924855;29;20053;-94
2023/03/01 08:18:21;;;;;;;0.00;0.00;;;;;;;;;;4940949;29;20122;-94
2023/03/01 08:20:47;;;;;;;0.00;0.00;;;;;;;;;;4939593;29;20566;-92
2023/03/01 08:23:13;;;;;;;0.38;0.38;;;;;;;;;;4940982;29;20039;-93
2023/03/01 08:25:39;;;;;;;0.75;0.75;;;;;;;;;;4940694;29;20547;-93
2023/03/01 08:28:06;;;;;;;0.00;0.00;;;;;;;;;;4942197;29;20049;-93
2023/03/01 08:30:32;;;;;;;0.00;0.00;;;;;;;;;;4941123;29;20502;-93
2023/03/01 08:32:58;;;;;;;0.00;0.00;;;;;;;;;;4940903;29;20082;-93
2023/03/01 08:35:24;;;;;;;0.00;0.00;;;;;;;;;;4939970;29;20047;-93
2023/03/01 08:37:50;;;;;;;0.00;0.00;;;;;;;;;;4940312;29;20395;-94
2023/03/01 08:40:16;;;;;;;0.00;0.00;;;;;;;;;;4939860;29;20048;-93
2023/03/01 08:42:42;;;;;;;0.15;0.15;;;;;;;;;;4940520;29;20137;-95
2023/03/01 08:45:09;;;;;;;0.00;0.00;;;;;;;;;;4940378;29;20070;-92
2023/03/01 08:47:35;;;;;;;0.00;0.00;;;;;;;;;;4924092;29;20043;-92
2023/03/01 08:50:02;;;;;;;0.00;0.00;;;;;;;;;;4924038;28;20131;-93
2023/03/01 08:52:29;;;;;;;0.00;0.00;;;;;;;;;;4924279;29;20086;-91
2023/03/01 08:54:55;;;;;;;0.00;0.00;;;;;;;;;;4924347;29;20051;-93
2023/03/01 08:57:24;;;;;;;0.00;0.00;;;;;;;;;;4940262;29;20202;-94
2023/03/01 08:59:50;;;;;;;0.00;0.00;;;;;;;;;;4924202;29;20046;-93
2023/03/01 09:02:17;;;;;;;0.40;0.20;;;;;;;;;;4939824;29;20068;-93
2023/03/01 09:04:44;;;;;;;0.00;0.00;;;;;;;;;;4940217;29;20032;-93
2023/03/01 09:07:10;;;;;;;0.00;0.00;;;;;;;;;;4939909;29;20043;-91
2023/03/01 09:09:37;;;;;;;0.00;0.00;;;;;;;;;;4939944;29;20538;-94
2023/03/01 09:12:04;;;;;;;0.03;0.00;;;;;;;;;;4939944;29;20365;-93
2023/03/01 09:14:30;;;;;;;1.25;0.25;;;;;;;;;;4942303;28;20066;-92
2023/03/01 09:16:56;;;;;;;0.00;0.00;;;;;;;;;;4940705;28;20039;-93
2023/03/01 09:22:14;;;;;;;0.00;0.00;;;;;;;;;;4949770;29;20065;-94
2023/03/01 09:25:22;;;;;;;0.00;0.00;;;;;;;;;;4945148;29;20558;-93
2023/03/01 09:27:55;;;;;;;0.00;0.00;;;;;;;;;;4950832;29;20058;-94
2023/03/01 09:30:24;;;;;;;0.00;0.00;;;;;;;;;;4952385;29;20459;-94
2023/03/01 09:32:50;;;;;;;0.00;0.00;;;;;;;;;;4945990;29;20051;-94
2023/03/01 09:35:16;;;;;;;0.08;0.03;;;;;;;;;;4947293;28;20054;-94
2023/03/01 09:37:54;;;;;;;;;;;;;;;;;;;;;
2023/03/01 09:51:33;;;;;;;0.00;0.00;;;;;;;;;;4936198;29;20040;-94
2023/03/01 09:54:10;;;;;;;0.10;0.10;;;;;;;;;;4937700;29;20075;-90
2023/03/01 09:57:16;;;;;;;0.08;0.08;;;;;;;;;;4902840;29;20048;-90
2023/03/01 10:00:15;;;;;;;0.00;0.00;;;;;;;;;;4908068;29;20048;-93
2023/03/01 10:03:06;;;;;;;0.00;0.00;;;;;;;;;;4889581;29;20071;-93
2023/03/01 10:05:36;;;;;;;0.00;0.00;;;;;;;;;;4902966;29;20041;-92
2023/03/01 10:08:05;;;;;;;0.00;0.00;;;;;;;;;;4898017;29;20041;-93
2023/03/01 10:10:32;;;;;;;0.10;0.10;;;;;;;;;;4908893;29;20527;-94
2023/03/01 10:13:00;;;;;;;0.15;0.05;;;;;;;;;;4887861;29;20508;-92
2023/03/01 10:16:04;;;;;;;;;;;;;;;;;;;;;
2023/03/01 10:18:45;;;;;;;0.00;0.00;;;;;;;;;;4903529;29;20041;-93
2023/03/01 10:21:40;;;;;;;1.15;0.43;;;;;;;;;;4883774;29;20081;-94
2023/03/01 10:24:24;;;;;;;0.00;0.00;;;;;;;;;;4878825;29;20059;-94
2023/03/01 10:27:05;;;;;;;0.10;0.00;;;;;;;;;;4869702;29;20042;-92
2023/03/01 10:29:35;;;;;;;0.00;0.00;;;;;;;;;;4867764;29;20500;-91
2023/03/01 10:32:06;;;;;;;0.43;0.43;;;;;;;;;;4899151;29;20053;-94
2023/03/01 10:34:34;;;;;;;1.20;0.40;;;;;;;;;;4885823;29;20089;-93
2023/03/01 10:37:14;;;;;;;0.00;0.00;;;;;;;;;;4883270;29;20057;-94
2023/03/01 10:40:04;;;;;;;0.57;0.15;;;;;;;;;;4883715;29;20048;-93
2023/03/01 10:42:32;;;;;;;0.00;0.00;;;;;;;;;;4870593;29;20044;-94
2023/03/01 10:45:15;;;;;;;0.00;0.00;;;;;;;;;;4872257;29;20048;-95
2023/03/01 10:48:01;;;;;;;0.00;0.00;;;;;;;;;;4891400;29;20057;-95
2023/03/01 10:50:27;;;;;;;0.90;0.15;;;;;;;;;;4909562;29;20064;-94
2023/03/01 10:53:31;;;;;;;;;;;;;;;;;;;;;
2023/03/01 10:56:10;;;;;;;0.00;0.00;;;;;;;;;;4871702;29;20065;-94
2023/03/01 11:01:49;;;;;;;0.00;0.00;;;;;;;;;;4908102;29;20156;-95
2023/03/01 11:04:16;;;;;;;0.13;0.10;;;;;;;;;;4872172;29;20080;-93
2023/03/01 11:06:42;;;;;;;0.00;0.00;;;;;;;;;;4874867;29;20053;-94
2023/03/01 11:09:22;;;;;;;0.30;0.20;;;;;;;;;;4868012;29;20041;-94
2023/03/01 11:11:58;;;;;;;0.00;0.00;;;;;;;;;;4867942;29;20091;-94
2023/03/01 11:14:28;;;;;;;0.45;0.08;;;;;;;;;;4870708;29;20064;-95
2023/03/01 11:17:11;;;;;;;0.00;0.00;;;;;;;;;;4876880;29;20049;-94
2023/03/01 11:19:53;;;;;;;;;;;;;;;;;;;;;
2023/03/01 11:22:35;;;;;;;0.00;0.00;;;;;;;;;;4875419;29;20061;-94
2023/03/01 11:25:20;;;;;;;2.08;0.43;;;;;;;;;;4872655;29;20045;-95
2023/03/01 11:27:46;;;;;;;0.22;0.00;;;;;;;;;;4899570;29;20200;-93
2023/03/01 11:30:21;;;;;;;0.00;0.00;;;;;;;;;;4905441;29;20049;-95
2023/03/01 11:32:51;;;;;;;0.38;0.20;;;;;;;;;;4889061;29;20037;-95
2023/03/01 11:35:24;;;;;;;0.00;0.00;;;;;;;;;;4885621;29;20145;-95
2023/03/01 11:38:08;;;;;;;0.00;0.00;;;;;;;;;;4901324;29;20044;-93
2023/03/01 11:40:44;;;;;;;0.00;0.00;;;;;;;;;;4882980;29;20056;-94
2023/03/01 11:43:23;;;;;;;0.00;0.00;;;;;;;;;;4884463;29;20037;-93
2023/03/01 11:45:55;;;;;;;0.03;0.00;;;;;;;;;;4884208;29;20041;-94
2023/03/01 11:48:42;;;;;;;0.85;0.28;;;;;;;;;;4887948;29;20048;-94
2023/03/01 11:51:15;;;;;;;0.30;0.10;;;;;;;;;;4870162;29;20049;-95
2023/03/01 11:53:58;;;;;;;0.00;0.00;;;;;;;;;;4876216;29;20044;-93
2023/03/01 11:56:57;;;;;;;0.47;0.35;;;;;;;;;;4873189;29;20049;-94
2023/03/01 11:59:38;;;;;;;0.00;0.00;;;;;;;;;;4875791;29;20104;-95
2023/03/01 12:02:16;;;;;;;0.20;0.17;;;;;;;;;;4875946;29;20088;-93
2023/03/01 12:04:54;;;;;;;0.45;0.25;;;;;;;;;;4861414;29;20063;-93
2023/03/01 12:07:23;;;;;;;0.10;0.05;;;;;;;;;;4875957;29;20041;-93
2023/03/01 12:10:04;;;;;;;0.00;0.00;;;;;;;;;;4852012;29;20557;-94
2023/03/01 12:12:38;;;;;;;0.65;0.10;;;;;;;;;;4867126;29;20084;-95
2023/03/01 12:15:23;;;;;;;0.00;0.00;;;;;;;;;;4866860;29;20048;-94
2023/03/01 12:18:08;;;;;;;0.20;0.03;;;;;;;;;;4865667;29;20109;-93
2023/03/01 12:20:46;;;;;;;0.00;0.00;;;;;;;;;;4865799;29;20044;-94
2023/03/01 12:23:23;;;;;;;0.00;0.00;;;;;;;;;;4867180;29;20045;-93
2023/03/01 12:25:54;;;;;;;0.47;0.10;;;;;;;;;;4852348;29;20390;-93
2023/03/01 12:28:36;;;;;;;0.10;0.10;;;;;;;;;;4850979;29;20144;-92
2023/03/01 12:31:08;;;;;;;0.10;0.10;;;;;;;;;;4851010;29;20041;-94
2023/03/01 12:33:37;;;;;;;0.00;0.00;;;;;;;;;;4866057;29;20098;-91
2023/03/01 12:36:25;;;;;;;0.47;0.45;;;;;;;;;;4866788;29;20056;-92
2023/03/01 12:39:10;;;;;;;0.43;0.43;;;;;;;;;;4866879;29;20184;-94
2023/03/01 12:41:54;;;;;;;0.35;0.15;;;;;;;;;;4871019;29;20045;-95
2023/03/01 12:44:39;;;;;;;0.00;0.00;;;;;;;;;;4873840;29;20048;-93
2023/03/01 12:47:12;;;;;;;0.00;0.00;;;;;;;;;;4867334;29;20037;-92
2023/03/01 12:49:41;;;;;;;0.20;0.13;;;;;;;;;;4880131;29;20512;-93
2023/03/01 12:52:15;;;;;;;0.00;0.00;;;;;;;;;;4901255;29;20107;-95
2023/03/01 12:54:50;;;;;;;3.78;3.42;;;;;;;;;;4903194;29;20065;-94
2023/03/01 12:57:40;;;;;;;0.10;0.05;;;;;;;;;;4901398;29;20048;-92
2023/03/01 13:00:09;;;;;;;0.17;0.17;;;;;;;;;;4899615;29;20627;-94
2023/03/01 13:02:46;;;;;;;0.22;0.10;;;;;;;;;;4900041;29;20066;-92
2023/03/01 13:05:12;;;;;;;0.00;0.00;;;;;;;;;;4883958;29;20148;-93
2023/03/01 13:07:44;;;;;;;0.00;0.00;;;;;;;;;;4899276;29;20075;-93
2023/03/01 13:10:16;;;;;;;0.10;0.03;;;;;;;;;;4899289;29;20045;-93
2023/03/01 13:12:58;;;;;;;0.28;0.15;;;;;;;;;;4900461;29;20056;-93
2023/03/01 13:15:24;;;;;;;0.55;0.08;;;;;;;;;;4899237;29;20037;-93
2023/03/01 13:17:52;;;;;;;0.00;0.00;;;;;;;;;;4899594;29;20382;-94
2023/03/01 13:20:19;;;;;;;0.73;0.38;;;;;;;;;;4899647;29;20243;-94
2023/03/01 13:23:00;;;;;;;0.00;0.00;;;;;;;;;;4883968;29;20083;-92
2023/03/01 13:25:26;;;;;;;0.20;0.03;;;;;;;;;;4886431;29;20059;-95
2023/03/01 13:28:13;;;;;;;0.45;0.45;;;;;;;;;;4905704;29;20051;-92
2023/03/01 13:30:40;;;;;;;0.40;0.20;;;;;;;;;;4906246;29;20060;-93
2023/03/01 13:33:27;;;;;;;0.20;0.00;;;;;;;;;;4917577;29;20127;-93
2023/03/01 13:39:26;;;;;;;0.00;0.00;;;;;;;;;;4916497;29;20058;-93
2023/03/01 13:51:24;;;;;;;0.00;0.00;;;;;;;;;;4993665;28;20093;-93
2023/03/01 14:02:31;;;;;;;0.15;0.10;;;;;;;;;;4987276;28;20513;-92
2023/03/01 14:07:55;;;;;;;0.00;0.00;;;;;;;;;;4993750;28;20046;-90
2023/03/01 14:10:42;;;;;;;0.70;0.30;;;;;;;;;;4978386;28;20454;-95
2023/03/01 14:13:30;;;;;;;0.43;0.20;;;;;;;;;;4974198;28;20031;-91
2023/03/01 14:16:05;;;;;;;0.00;0.00;;;;;;;;;;4976170;28;20086;-95
2023/03/01 14:19:24;;;;;;;0.00;0.00;;;;;;;;;;4975295;28;20074;-90
2023/03/01 14:21:40;;;;;;;0.00;0.00;;;;;;;;;;4946780;28;20047;-94
2023/03/01 14:24:06;;;;;;;0.22;0.05;;;;;;;;;;4946493;28;20129;-95
2023/03/01 14:26:33;;;;;;;0.00;0.00;;;;;;;;;;4964046;28;20102;-94
2023/03/01 14:29:03;;;;;;;0.00;0.00;;;;;;;;;;4966112;28;20049;-94
2023/03/01 14:31:36;;;;;;;0.00;0.00;;;;;;;;;;4964160;28;20049;-93
2023/03/01 14:34:03;;;;;;;0.00;0.00;;;;;;;;;;4962379;28;20042;-93
2023/03/01 14:36:40;;;;;;;1.17;0.85;;;;;;;;;;4945332;28;20379;-94
2023/03/01 14:39:16;;;;;;;0.05;0.03;;;;;;;;;;4961371;28;20041;-93
2023/03/01 14:42:08;;;;;;;0.00;0.00;;;;;;;;;;4966175;28;20098;-93
2023/03/01 14:47:18;;;;;;;0.00;0.00;;;;;;;;;;5160763;23;20051;-94
2023/03/01 14:49:44;;;;;;;0.30;0.20;;;;;;;;;;4992061;28;20046;-94
2023/03/01 14:52:26;;;;;;;1.10;0.80;;;;;;;;;;4990126;28;20061;-92
2023/03/01 14:54:53;;;;;;;0.38;0.10;;;;;;;;;;5005435;28;20487;-93
2023/03/01 14:57:44;;;;;;;0.22;0.10;;;;;;;;;;4971448;28;20041;-94
2023/03/01 15:00:18;;;;;;;2.00;0.45;;;;;;;;;;5115979;23;20094;-93
2023/03/01 15:02:49;;;;;;;0.00;0.00;;;;;;;;;;4947324;29;20043;-93
2023/03/01 15:05:37;;;;;;;0.00;0.00;;;;;;;;;;4933563;29;20039;-94
2023/03/01 15:08:24;;;;;;;0.00;0.00;;;;;;;;;;4961016;28;20047;-94
2023/03/01 15:11:01;;;;;;;0.00;0.00;;;;;;;;;;4945995;29;20126;-92
2023/03/01 15:16:34;;;;;;;0.45;0.28;;;;;;;;;;4918481;29;20111;-94
2023/03/01 15:19:04;;;;;;;0.10;0.00;;;;;;;;;;4899726;29;20052;-94
2023/03/01 15:21:34;;;;;;;0.00;0.00;;;;;;;;;;4889624;29;20171;-95
2023/03/01 15:24:19;;;;;;;0.10;0.10;;;;;;;;;;4911603;29;20055;-91
2023/03/01 15:27:06;;;;;;;0.00;0.00;;;;;;;;;;4914322;29;20055;-94
2023/03/01 15:29:40;;;;;;;0.00;0.00;;;;;;;;;;4910720;29;20051;-95
2023/03/01 15:32:26;;;;;;;1.98;0.13;;;;;;;;;;4916789;29;20115;-95
2023/03/01 15:35:20;;;;;;;0.10;0.00;;;;;;;;;;4910480;29;20084;-93
2023/03/01 15:37:52;;;;;;;0.00;0.00;;;;;;;;;;4912783;29;20060;-93
2023/03/01 15:40:47;;;;;;;0.00;0.00;;;;;;;;;;4928895;29;20065;-95
2023/03/01 15:43:38;;;;;;;0.00;0.00;;;;;;;;;;4899172;29;20095;-91
2023/03/01 15:46:04;;;;;;;0.00;0.00;;;;;;;;;;4919662;29;20100;-92
2023/03/01 15:48:35;;;;;;;0.28;0.10;;;;;;;;;;4958756;29;20070;-89
2023/03/01 15:58:53;;;;;;;0.10;0.00;;;;;;;;;;4965050;28;20035;-93
2023/03/01 16:01:22;;;;;;;0.00;0.00;;;;;;;;;;4973797;29;20078;-93
2023/03/01 16:03:49;;;;;;;0.00;0.00;;;;;;;;;;4955172;29;20047;-95
2023/03/01 16:06:15;;;;;;;0.00;0.00;;;;;;;;;;4939760;29;20411;-93
2023/03/01 16:08:41;;;;;;;0.22;0.05;;;;;;;;;;4936441;29;20058;-94
2023/03/01 16:11:15;;;;;;;0.20;0.10;;;;;;;;;;4935386;29;20058;-94
2023/03/01 16:13:47;;;;;;;0.30;0.10;;;;;;;;;;4937276;29;20044;-93
2023/03/01 16:16:57;;;;;;;0.00;0.00;;;;;;;;;;4937137;29;20047;-94
2023/03/01 16:19:48;;;;;;;0.00;0.00;;;;;;;;;;4950484;29;20048;-95
2023/03/01 16:22:24;;;;;;;;;;;;;;;;;;;;;
2023/03/01 16:24:56;;;;;;;0.00;0.00;;;;;;;;;;4931152;29;20048;-94